Mesa Verde, CO (81330)

4:31 AM MDT on September 20, 2014 (GMT -0600)
RAWS MOREFIELD CO US | Change Station
CLOSE
Current Station
Personal Weather Station
Location: Mesa Verde, CO
Elevation: 7819 ft
Nearby Weather Stations

Elev 7819 ft 37.30 °N, 108.41 °W | Updated 9 hours ago

Clear
Clear
50 °F
Feels Like 50 °F
N
6
Wind Variable Wind from ENE
Gusts 6 mph

Today
High -- | Low -- °F
--% Chance of Precip.
Yesterday
High -- | Low -- °F
Precip. -- in
7:00 AM 7:13 PM
Waning Crescent, 13% visible
Pressure 29.92 in
Visibility 10.0 miles
Clouds Clear
Dew Point 46 °F
Humidity 90%
Rainfall 0.00 in
Snow Depth 0 in , 0 in , 0 in
UV 0 out of 12
Pollen 6.30 out of 12
Air Quality Not available.
Flu Activity Not available.
METAR KCEZ 200953Z AUTO 05006KT 10SM CLR 10/07 A3014 RMK AO2 SLP131 T01000072

More Conditions Fewer Conditions

Pressure 29.92 in
Visibility 10.0 miles
Clouds Clear
Dew Point 46 °F
Humidity 90%
Rainfall 0.00 in
Snow Depth 0 in , 0 in , 0 in
UV 0 out of 12
Pollen 6.30 out of 12
Air Quality Not available.
Flu Activity Not available.
METAR KCEZ 200953Z AUTO 05006KT 10SM CLR 10/07 A3014 RMK AO2 SLP131 T01000072

More Conditions Fewer Conditions

10-Day Weather Forecast

Almanac

Astronomy

Sep. 20, 2014 Rise Set
Actual Time 7:00 AM MDT 7:13 PM MDT
Civil Twilight 6:34 AM MDT 7:39 PM MDT
Nautical Twilight 6:03 AM MDT 8:10 PM MDT
Astronomical Twilight 5:32 AM MDT 8:41 PM MDT
Moon 3:45 AM MDT 5:16 PM MDT
Length of Visible Light 13h 05m
Length of Day
12h 13m
Tomorrow will be 2m 21s shorter.
Waning Crescent, 13% of the Moon is Illuminated
Today
Waning Crescent
Sep 24
New
Oct 1
First Quarter
Oct 8
Full
Oct 15
Last Quarter

Today's Extremes

State Highs State Lows

Community

WunderPhotos

Upload Photos

1,754,827 photos uploaded!

WunderBlogs® & News

Nearby

Snow Depth

Station Depth Elevation
Wolf Creek Summit 0 in 11000 ft
Jones Pass 0 in 10400 ft
Red Mountain Pass 0 in 11150 ft
Jackwhacker Gulch 0 in 10960 ft
Mesa Lakes 0 in 10000 ft

Earthquake Activity

City Distance Mag. Time & Date
No recent earthquake activity has been reported nearby.
Minimum magnitude displayed is 2.5.

Coastal Water Temperatures

Place Temperature
No Stations Reporting

Nearby Weather Stations